Terminal Aerodrome Forecast
Issued by NWS Omaha/Valley, NE

Home | Current Version | Previous Version | Graphics & Text | Print | Product List | Glossary On
Versions: 1 2 3 4 5 6 7 8 9 10 11 12 13 14 15 16 17 18 19 20 21 22 23 24 25 26 27
604
FTUS43 KOAX 220809 AAA
TAFOFK
TAF AMD
KOFK 220809Z 2208/2306 11006KT P6SM OVC050
      TEMPO 2209/2211 2SM -SN OVC025
     FM221100 12007KT 6SM -SN OVC020
     FM222100 13007KT 1SM -SN OVC015
     FM230200 15006KT P6SM OVC010=

USA.gov is the U.S. government's official web portal to all federal, state and local government web resources and services.